ルクセンブルク の空港の天気 - METARとTAF

ルクセンブルク-フィンデル空港 ( ELLX / LUX ) - ルクセンブルク ルクセンブルク
飛行場実況気象(Metar)
観測時間04/24 18:50 CEST (04/24 16:50 UTC)
風向・風速南 5m/s
視程10km以上
天気現象弱い雨
少しの雲 雲底高度 460m
全天の8割程度の雲 雲底高度 1160m
気温10℃
湿度87%
気圧1005hPa
METARELLX 241650Z 19009KT 9999 -RA FEW015 BKN038 10/08 Q1005 TEMPO 20015G25KT 4000
過去の天気等 Google飛行場航空写真 Wunderground天気予報

過去48時間のMETAR

飛行場予報(TAF)
発表時間: 4/24 13:00 CEST (4/24 11:00 UTC)
予報対象時間: 24日14時 CEST ~ 25日20時 CEST
風向・風速南 5m/s
視程10km以上
なし
24日15時 CEST ~ 24日22時 CEST に一時的に
風向・風速南 8m/s 瞬間風速 13m/s
視程4000m
天気現象しゅう雨
全天の8割程度の積乱雲 雲底高度 1070m
24日16時 CEST ~ 24日20時 CEST に 確率 40% で一時的に
風向・風速南南西 13m/s 瞬間風速 21m/s
視程2000m
天気現象雷ひょう
全天の4割程度の雲 雲底高度 610m
全天の8割程度の積乱雲 雲底高度 760m
25日19時 CEST ~ 25日20時 CEST に一時的に
視程4000m
天気現象
全天の4割程度の雲 雲底高度 300m
全天の8割程度の雲 雲底高度 610m
TAF ELLX 241100Z 2412/2518 18010KT CAVOK
TEMPO 2413/2420 19015G25KT 4000 SHRA BKN035CB
PROB40 TEMPO 2414/2418 20025G40KT 2000 TSGR SCT020 BKN025CB
TEMPO 2517/2518 4000 RA SCT010 BKN020